sensor_id;sensor_type;location;lat;lon;timestamp;P1;durP1;ratioP1;P2;durP2;ratioP2
10116;SDS011;5098;48.792;9.012;2023-07-02T00:00:08;4.47;;;4.07;;
10116;SDS011;5098;48.792;9.012;2023-07-02T00:02:35;4.33;;;3.93;;
10116;SDS011;5098;48.792;9.012;2023-07-02T00:05:01;28.93;;;22.93;;
10116;SDS011;5098;48.792;9.012;2023-07-02T00:07:27;71.17;;;55.90;;
10116;SDS011;5098;48.792;9.012;2023-07-02T00:09:54;116.87;;;91.30;;
10116;SDS011;5098;48.792;9.012;2023-07-02T00:12:20;51.40;;;37.30;;
10116;SDS011;5098;48.792;9.012;2023-07-02T00:14:46;46.83;;;35.67;;
10116;SDS011;5098;48.792;9.012;2023-07-02T00:17:12;6.90;;;6.07;;
10116;SDS011;5098;48.792;9.012;2023-07-02T00:19:41;8.90;;;7.63;;
10116;SDS011;5098;48.792;9.012;2023-07-02T00:22:08;5.93;;;4.97;;
10116;SDS011;5098;48.792;9.012;2023-07-02T00:24:34;6.00;;;4.37;;
10116;SDS011;5098;48.792;9.012;2023-07-02T00:27:00;4.63;;;4.23;;
10116;SDS011;5098;48.792;9.012;2023-07-02T00:29:26;4.33;;;3.93;;
10116;SDS011;5098;48.792;9.012;2023-07-02T00:31:52;4.10;;;3.80;;
10116;SDS011;5098;48.792;9.012;2023-07-02T00:34:18;5.10;;;4.67;;
10116;SDS011;5098;48.792;9.012;2023-07-02T00:36:44;4.90;;;4.40;;
10116;SDS011;5098;48.792;9.012;2023-07-02T00:39:11;4.23;;;3.87;;
10116;SDS011;5098;48.792;9.012;2023-07-02T00:41:37;4.03;;;3.40;;
10116;SDS011;5098;48.792;9.012;2023-07-02T00:44:03;5.47;;;4.53;;
10116;SDS011;5098;48.792;9.012;2023-07-02T00:46:29;4.03;;;3.37;;
10116;SDS011;5098;48.792;9.012;2023-07-02T00:48:56;8.23;;;3.70;;
10116;SDS011;5098;48.792;9.012;2023-07-02T00:51:23;4.03;;;3.73;;
10116;SDS011;5098;48.792;9.012;2023-07-02T00:53:50;4.80;;;3.63;;
10116;SDS011;5098;48.792;9.012;2023-07-02T00:56:17;4.37;;;3.97;;
10116;SDS011;5098;48.792;9.012;2023-07-02T00:58:44;8.00;;;4.67;;
10116;SDS011;5098;48.792;9.012;2023-07-02T01:01:16;7.83;;;4.00;;
10116;SDS011;5098;48.792;9.012;2023-07-02T01:03:52;5.43;;;3.63;;
10116;SDS011;5098;48.792;9.012;2023-07-02T01:06:19;4.23;;;3.83;;
10116;SDS011;5098;48.792;9.012;2023-07-02T01:08:50;4.13;;;3.73;;
10116;SDS011;5098;48.792;9.012;2023-07-02T01:11:16;3.83;;;3.50;;
10116;SDS011;5098;48.792;9.012;2023-07-02T01:13:42;5.40;;;4.03;;
10116;SDS011;5098;48.792;9.012;2023-07-02T01:16:09;3.87;;;3.30;;
10116;SDS011;5098;48.792;9.012;2023-07-02T01:18:35;5.00;;;4.10;;
10116;SDS011;5098;48.792;9.012;2023-07-02T01:21:03;4.30;;;3.90;;
10116;SDS011;5098;48.792;9.012;2023-07-02T01:23:31;4.90;;;3.60;;
10116;SDS011;5098;48.792;9.012;2023-07-02T01:25:57;3.80;;;3.50;;
10116;SDS011;5098;48.792;9.012;2023-07-02T01:28:24;4.80;;;4.03;;
10116;SDS011;5098;48.792;9.012;2023-07-02T01:30:50;3.93;;;3.53;;
10116;SDS011;5098;48.792;9.012;2023-07-02T01:33:16;4.23;;;3.33;;
10116;SDS011;5098;48.792;9.012;2023-07-02T01:35:42;4.73;;;3.97;;
10116;SDS011;5098;48.792;9.012;2023-07-02T01:38:08;4.53;;;3.97;;
10116;SDS011;5098;48.792;9.012;2023-07-02T01:40:34;3.67;;;3.37;;
10116;SDS011;5098;48.792;9.012;2023-07-02T01:43:00;5.07;;;3.70;;
10116;SDS011;5098;48.792;9.012;2023-07-02T01:45:26;4.30;;;3.90;;
10116;SDS011;5098;48.792;9.012;2023-07-02T01:47:52;4.70;;;4.30;;
10116;SDS011;5098;48.792;9.012;2023-07-02T01:50:18;4.60;;;4.20;;
10116;SDS011;5098;48.792;9.012;2023-07-02T01:52:45;4.33;;;3.93;;
10116;SDS011;5098;48.792;9.012;2023-07-02T01:55:11;5.80;;;4.33;;
10116;SDS011;5098;48.792;9.012;2023-07-02T01:57:38;4.87;;;4.30;;
10116;SDS011;5098;48.792;9.012;2023-07-02T02:00:04;5.43;;;4.93;;
10116;SDS011;5098;48.792;9.012;2023-07-02T02:02:31;10.40;;;4.63;;
10116;SDS011;5098;48.792;9.012;2023-07-02T02:04:57;5.73;;;4.70;;
10116;SDS011;5098;48.792;9.012;2023-07-02T02:07:23;4.70;;;4.30;;
10116;SDS011;5098;48.792;9.012;2023-07-02T02:09:49;4.90;;;4.50;;
10116;SDS011;5098;48.792;9.012;2023-07-02T02:12:15;4.50;;;4.10;;
10116;SDS011;5098;48.792;9.012;2023-07-02T02:14:41;4.80;;;4.40;;
10116;SDS011;5098;48.792;9.012;2023-07-02T02:17:07;4.90;;;4.50;;
10116;SDS011;5098;48.792;9.012;2023-07-02T02:19:33;5.20;;;4.70;;
10116;SDS011;5098;48.792;9.012;2023-07-02T02:21:59;6.30;;;4.50;;
10116;SDS011;5098;48.792;9.012;2023-07-02T02:24:25;5.43;;;4.30;;
10116;SDS011;5098;48.792;9.012;2023-07-02T02:26:51;4.40;;;4.00;;
10116;SDS011;5098;48.792;9.012;2023-07-02T02:29:17;5.13;;;4.63;;
10116;SDS011;5098;48.792;9.012;2023-07-02T02:31:43;8.23;;;4.87;;
10116;SDS011;5098;48.792;9.012;2023-07-02T02:34:09;4.50;;;4.10;;
10116;SDS011;5098;48.792;9.012;2023-07-02T02:36:35;4.07;;;3.77;;
10116;SDS011;5098;48.792;9.012;2023-07-02T02:39:01;4.43;;;4.03;;
10116;SDS011;5098;48.792;9.012;2023-07-02T02:41:28;4.80;;;3.30;;
10116;SDS011;5098;48.792;9.012;2023-07-02T02:43:54;5.40;;;4.07;;
10116;SDS011;5098;48.792;9.012;2023-07-02T02:46:20;3.80;;;3.50;;
10116;SDS011;5098;48.792;9.012;2023-07-02T02:48:49;5.60;;;3.60;;
10116;SDS011;5098;48.792;9.012;2023-07-02T02:51:16;6.83;;;3.60;;
10116;SDS011;5098;48.792;9.012;2023-07-02T02:53:42;4.10;;;3.70;;
10116;SDS011;5098;48.792;9.012;2023-07-02T02:56:08;4.03;;;3.47;;
10116;SDS011;5098;48.792;9.012;2023-07-02T02:58:34;5.83;;;3.50;;
10116;SDS011;5098;48.792;9.012;2023-07-02T03:01:01;4.83;;;3.70;;
10116;SDS011;5098;48.792;9.012;2023-07-02T03:03:27;4.50;;;4.10;;
10116;SDS011;5098;48.792;9.012;2023-07-02T03:05:53;4.40;;;4.00;;
10116;SDS011;5098;48.792;9.012;2023-07-02T03:08:19;5.10;;;3.93;;
10116;SDS011;5098;48.792;9.012;2023-07-02T03:10:45;3.87;;;3.47;;
10116;SDS011;5098;48.792;9.012;2023-07-02T03:13:11;6.90;;;4.20;;
10116;SDS011;5098;48.792;9.012;2023-07-02T03:15:37;7.00;;;4.50;;
10116;SDS011;5098;48.792;9.012;2023-07-02T03:18:03;5.23;;;4.07;;
10116;SDS011;5098;48.792;9.012;2023-07-02T03:20:29;9.70;;;4.47;;
10116;SDS011;5098;48.792;9.012;2023-07-02T03:22:55;5.30;;;4.00;;
10116;SDS011;5098;48.792;9.012;2023-07-02T03:25:21;5.77;;;4.30;;
10116;SDS011;5098;48.792;9.012;2023-07-02T03:27:47;5.70;;;4.70;;
10116;SDS011;5098;48.792;9.012;2023-07-02T03:30:13;6.50;;;4.20;;
10116;SDS011;5098;48.792;9.012;2023-07-02T03:32:39;5.57;;;4.40;;
10116;SDS011;5098;48.792;9.012;2023-07-02T03:35:06;5.90;;;4.87;;
10116;SDS011;5098;48.792;9.012;2023-07-02T03:37:32;5.40;;;4.20;;
10116;SDS011;5098;48.792;9.012;2023-07-02T03:39:58;6.70;;;4.40;;
10116;SDS011;5098;48.792;9.012;2023-07-02T03:42:24;9.23;;;4.80;;
10116;SDS011;5098;48.792;9.012;2023-07-02T03:44:50;4.97;;;4.13;;
10116;SDS011;5098;48.792;9.012;2023-07-02T03:47:16;5.97;;;3.90;;
10116;SDS011;5098;48.792;9.012;2023-07-02T03:49:44;7.10;;;4.30;;
10116;SDS011;5098;48.792;9.012;2023-07-02T03:52:10;11.73;;;4.37;;
10116;SDS011;5098;48.792;9.012;2023-07-02T03:54:36;6.70;;;4.20;;
10116;SDS011;5098;48.792;9.012;2023-07-02T03:57:02;7.57;;;4.90;;
10116;SDS011;5098;48.792;9.012;2023-07-02T03:59:28;6.97;;;4.00;;
10116;SDS011;5098;48.792;9.012;2023-07-02T04:01:55;6.93;;;4.47;;
10116;SDS011;5098;48.792;9.012;2023-07-02T04:04:21;5.53;;;4.27;;
10116;SDS011;5098;48.792;9.012;2023-07-02T04:06:47;6.07;;;3.90;;
10116;SDS011;5098;48.792;9.012;2023-07-02T04:09:13;6.40;;;4.30;;
10116;SDS011;5098;48.792;9.012;2023-07-02T04:11:39;5.53;;;3.97;;
10116;SDS011;5098;48.792;9.012;2023-07-02T04:14:05;6.80;;;4.30;;
10116;SDS011;5098;48.792;9.012;2023-07-02T04:16:31;7.20;;;4.30;;
10116;SDS011;5098;48.792;9.012;2023-07-02T04:18:57;8.23;;;4.43;;
10116;SDS011;5098;48.792;9.012;2023-07-02T04:21:23;6.80;;;4.50;;
10116;SDS011;5098;48.792;9.012;2023-07-02T04:23:49;6.77;;;4.43;;
10116;SDS011;5098;48.792;9.012;2023-07-02T04:26:15;8.10;;;4.80;;
10116;SDS011;5098;48.792;9.012;2023-07-02T04:28:41;7.17;;;4.60;;
10116;SDS011;5098;48.792;9.012;2023-07-02T04:31:07;5.00;;;3.90;;
10116;SDS011;5098;48.792;9.012;2023-07-02T04:33:33;5.80;;;4.00;;
10116;SDS011;5098;48.792;9.012;2023-07-02T04:36:02;7.53;;;4.37;;
10116;SDS011;5098;48.792;9.012;2023-07-02T04:38:28;8.70;;;4.70;;
10116;SDS011;5098;48.792;9.012;2023-07-02T04:40:54;6.60;;;4.77;;
10116;SDS011;5098;48.792;9.012;2023-07-02T04:43:22;6.30;;;4.27;;
10116;SDS011;5098;48.792;9.012;2023-07-02T04:45:48;6.90;;;4.37;;
10116;SDS011;5098;48.792;9.012;2023-07-02T04:48:15;7.07;;;4.50;;
10116;SDS011;5098;48.792;9.012;2023-07-02T04:50:41;6.67;;;4.33;;
10116;SDS011;5098;48.792;9.012;2023-07-02T04:53:07;5.43;;;3.80;;
10116;SDS011;5098;48.792;9.012;2023-07-02T04:55:33;5.20;;;3.87;;
10116;SDS011;5098;48.792;9.012;2023-07-02T04:57:59;4.73;;;4.10;;
10116;SDS011;5098;48.792;9.012;2023-07-02T05:00:25;7.57;;;3.97;;
10116;SDS011;5098;48.792;9.012;2023-07-02T05:02:51;5.30;;;4.30;;
10116;SDS011;5098;48.792;9.012;2023-07-02T05:05:17;4.77;;;3.80;;
10116;SDS011;5098;48.792;9.012;2023-07-02T05:07:43;6.43;;;4.40;;
10116;SDS011;5098;48.792;9.012;2023-07-02T05:10:10;5.40;;;4.47;;
10116;SDS011;5098;48.792;9.012;2023-07-02T05:12:36;6.73;;;4.57;;
10116;SDS011;5098;48.792;9.012;2023-07-02T05:15:02;7.00;;;4.07;;
10116;SDS011;5098;48.792;9.012;2023-07-02T05:17:28;4.93;;;3.60;;
10116;SDS011;5098;48.792;9.012;2023-07-02T05:19:54;5.37;;;3.87;;
10116;SDS011;5098;48.792;9.012;2023-07-02T05:22:20;5.90;;;4.50;;
10116;SDS011;5098;48.792;9.012;2023-07-02T05:24:46;5.27;;;4.77;;
10116;SDS011;5098;48.792;9.012;2023-07-02T05:27:12;8.40;;;4.60;;
10116;SDS011;5098;48.792;9.012;2023-07-02T05:29:38;9.63;;;5.43;;
10116;SDS011;5098;48.792;9.012;2023-07-02T05:32:04;8.27;;;4.60;;
10116;SDS011;5098;48.792;9.012;2023-07-02T05:34:31;6.80;;;5.10;;
10116;SDS011;5098;48.792;9.012;2023-07-02T05:36:57;6.00;;;5.40;;
10116;SDS011;5098;48.792;9.012;2023-07-02T05:39:23;9.97;;;6.67;;
10116;SDS011;5098;48.792;9.012;2023-07-02T05:41:49;12.50;;;6.20;;
10116;SDS011;5098;48.792;9.012;2023-07-02T05:44:15;11.83;;;5.07;;
10116;SDS011;5098;48.792;9.012;2023-07-02T05:46:41;8.20;;;5.57;;
10116;SDS011;5098;48.792;9.012;2023-07-02T05:49:07;10.50;;;5.80;;
10116;SDS011;5098;48.792;9.012;2023-07-02T05:51:33;9.03;;;5.60;;
10116;SDS011;5098;48.792;9.012;2023-07-02T05:53:59;10.40;;;5.50;;
10116;SDS011;5098;48.792;9.012;2023-07-02T05:56:25;7.17;;;5.70;;
10116;SDS011;5098;48.792;9.012;2023-07-02T05:58:51;6.90;;;5.33;;
10116;SDS011;5098;48.792;9.012;2023-07-02T06:01:17;9.17;;;7.10;;
10116;SDS011;5098;48.792;9.012;2023-07-02T06:03:43;11.20;;;5.60;;
10116;SDS011;5098;48.792;9.012;2023-07-02T06:06:10;10.50;;;6.20;;
10116;SDS011;5098;48.792;9.012;2023-07-02T06:08:37;10.13;;;6.00;;
10116;SDS011;5098;48.792;9.012;2023-07-02T06:11:03;12.87;;;6.83;;
10116;SDS011;5098;48.792;9.012;2023-07-02T06:13:29;11.40;;;7.00;;
10116;SDS011;5098;48.792;9.012;2023-07-02T06:15:55;10.57;;;8.07;;
10116;SDS011;5098;48.792;9.012;2023-07-02T06:18:22;12.53;;;7.30;;
10116;SDS011;5098;48.792;9.012;2023-07-02T06:20:48;15.03;;;6.53;;
10116;SDS011;5098;48.792;9.012;2023-07-02T06:23:14;12.53;;;7.33;;
10116;SDS011;5098;48.792;9.012;2023-07-02T06:25:40;12.10;;;7.47;;
10116;SDS011;5098;48.792;9.012;2023-07-02T06:28:06;10.23;;;7.30;;
10116;SDS011;5098;48.792;9.012;2023-07-02T06:30:32;13.90;;;8.10;;
10116;SDS011;5098;48.792;9.012;2023-07-02T06:32:59;8.00;;;6.80;;
10116;SDS011;5098;48.792;9.012;2023-07-02T06:35:25;16.37;;;7.50;;
10116;SDS011;5098;48.792;9.012;2023-07-02T06:37:51;12.97;;;8.37;;
10116;SDS011;5098;48.792;9.012;2023-07-02T06:40:17;13.00;;;7.73;;
10116;SDS011;5098;48.792;9.012;2023-07-02T06:42:44;10.57;;;7.10;;
10116;SDS011;5098;48.792;9.012;2023-07-02T06:45:10;9.83;;;7.17;;
10116;SDS011;5098;48.792;9.012;2023-07-02T06:47:36;11.27;;;7.80;;
10116;SDS011;5098;48.792;9.012;2023-07-02T06:50:02;17.50;;;8.97;;
10116;SDS011;5098;48.792;9.012;2023-07-02T06:52:28;12.77;;;8.83;;
10116;SDS011;5098;48.792;9.012;2023-07-02T06:54:54;11.80;;;9.40;;
10116;SDS011;5098;48.792;9.012;2023-07-02T06:57:20;13.23;;;8.90;;
10116;SDS011;5098;48.792;9.012;2023-07-02T06:59:48;15.07;;;10.13;;
10116;SDS011;5098;48.792;9.012;2023-07-02T07:02:15;13.33;;;9.03;;
10116;SDS011;5098;48.792;9.012;2023-07-02T07:04:41;15.70;;;10.70;;
10116;SDS011;5098;48.792;9.012;2023-07-02T07:07:07;12.80;;;9.83;;
10116;SDS011;5098;48.792;9.012;2023-07-02T07:09:33;15.47;;;10.50;;
10116;SDS011;5098;48.792;9.012;2023-07-02T07:11:59;14.23;;;10.43;;
10116;SDS011;5098;48.792;9.012;2023-07-02T07:14:25;17.53;;;11.10;;
10116;SDS011;5098;48.792;9.012;2023-07-02T07:16:51;16.20;;;11.10;;
10116;SDS011;5098;48.792;9.012;2023-07-02T07:19:17;13.57;;;10.60;;
10116;SDS011;5098;48.792;9.012;2023-07-02T07:21:43;15.70;;;11.50;;
10116;SDS011;5098;48.792;9.012;2023-07-02T07:24:09;19.10;;;12.40;;
10116;SDS011;5098;48.792;9.012;2023-07-02T07:26:35;19.13;;;12.70;;
10116;SDS011;5098;48.792;9.012;2023-07-02T07:29:03;17.30;;;12.77;;
10116;SDS011;5098;48.792;9.012;2023-07-02T07:31:29;17.90;;;12.13;;
10116;SDS011;5098;48.792;9.012;2023-07-02T07:33:55;17.10;;;12.87;;
10116;SDS011;5098;48.792;9.012;2023-07-02T07:36:21;20.73;;;12.47;;
10116;SDS011;5098;48.792;9.012;2023-07-02T07:38:47;18.20;;;12.27;;
10116;SDS011;5098;48.792;9.012;2023-07-02T07:41:13;15.47;;;10.00;;
10116;SDS011;5098;48.792;9.012;2023-07-02T07:43:39;14.77;;;9.87;;
10116;SDS011;5098;48.792;9.012;2023-07-02T07:46:05;17.60;;;12.43;;
10116;SDS011;5098;48.792;9.012;2023-07-02T07:48:31;15.80;;;11.93;;
10116;SDS011;5098;48.792;9.012;2023-07-02T07:50:58;22.70;;;12.70;;
10116;SDS011;5098;48.792;9.012;2023-07-02T07:53:24;20.47;;;13.30;;
10116;SDS011;5098;48.792;9.012;2023-07-02T07:55:50;22.43;;;14.83;;
10116;SDS011;5098;48.792;9.012;2023-07-02T07:58:16;18.87;;;13.67;;
10116;SDS011;5098;48.792;9.012;2023-07-02T08:00:42;16.57;;;13.60;;
10116;SDS011;5098;48.792;9.012;2023-07-02T08:03:09;21.17;;;12.97;;
10116;SDS011;5098;48.792;9.012;2023-07-02T08:05:35;15.77;;;11.00;;
10116;SDS011;5098;48.792;9.012;2023-07-02T08:08:01;17.17;;;11.80;;
10116;SDS011;5098;48.792;9.012;2023-07-02T08:10:27;17.97;;;12.30;;
10116;SDS011;5098;48.792;9.012;2023-07-02T08:12:53;16.93;;;11.37;;
10116;SDS011;5098;48.792;9.012;2023-07-02T08:15:20;18.50;;;13.43;;
10116;SDS011;5098;48.792;9.012;2023-07-02T08:17:46;18.63;;;12.80;;
10116;SDS011;5098;48.792;9.012;2023-07-02T08:20:12;18.30;;;12.37;;
10116;SDS011;5098;48.792;9.012;2023-07-02T08:22:38;23.17;;;13.30;;
10116;SDS011;5098;48.792;9.012;2023-07-02T08:25:05;15.40;;;12.20;;
10116;SDS011;5098;48.792;9.012;2023-07-02T08:27:31;22.43;;;13.47;;
10116;SDS011;5098;48.792;9.012;2023-07-02T08:29:57;15.90;;;11.87;;
10116;SDS011;5098;48.792;9.012;2023-07-02T08:32:23;16.03;;;12.70;;
10116;SDS011;5098;48.792;9.012;2023-07-02T08:34:49;16.53;;;11.57;;
10116;SDS011;5098;48.792;9.012;2023-07-02T08:37:16;24.23;;;14.83;;
10116;SDS011;5098;48.792;9.012;2023-07-02T08:39:42;13.10;;;11.70;;
10116;SDS011;5098;48.792;9.012;2023-07-02T08:42:08;15.57;;;11.57;;
10116;SDS011;5098;48.792;9.012;2023-07-02T08:44:34;15.23;;;11.57;;
10116;SDS011;5098;48.792;9.012;2023-07-02T08:47:00;15.60;;;11.70;;
10116;SDS011;5098;48.792;9.012;2023-07-02T08:49:27;17.17;;;12.10;;
10116;SDS011;5098;48.792;9.012;2023-07-02T08:51:53;18.80;;;12.80;;
10116;SDS011;5098;48.792;9.012;2023-07-02T08:54:19;12.20;;;9.70;;
10116;SDS011;5098;48.792;9.012;2023-07-02T08:56:46;14.17;;;11.67;;
10116;SDS011;5098;48.792;9.012;2023-07-02T08:59:12;12.20;;;9.30;;
10116;SDS011;5098;48.792;9.012;2023-07-02T09:01:48;14.30;;;10.60;;
10116;SDS011;5098;48.792;9.012;2023-07-02T09:04:18;21.97;;;11.67;;
10116;SDS011;5098;48.792;9.012;2023-07-02T09:06:44;16.33;;;11.40;;
10116;SDS011;5098;48.792;9.012;2023-07-02T09:09:10;16.37;;;12.00;;
10116;SDS011;5098;48.792;9.012;2023-07-02T09:11:46;15.20;;;11.23;;
10116;SDS011;5098;48.792;9.012;2023-07-02T09:14:22;15.07;;;11.90;;
10116;SDS011;5098;48.792;9.012;2023-07-02T09:16:49;12.67;;;8.73;;
10116;SDS011;5098;48.792;9.012;2023-07-02T09:19:15;11.37;;;8.40;;
10116;SDS011;5098;48.792;9.012;2023-07-02T09:21:43;14.73;;;11.30;;
10116;SDS011;5098;48.792;9.012;2023-07-02T09:26:45;14.07;;;11.37;;
10116;SDS011;5098;48.792;9.012;2023-07-02T09:29:12;13.33;;;11.30;;
10116;SDS011;5098;48.792;9.012;2023-07-02T09:31:45;15.33;;;11.97;;
10116;SDS011;5098;48.792;9.012;2023-07-02T09:34:12;13.43;;;10.87;;
10116;SDS011;5098;48.792;9.012;2023-07-02T09:36:38;13.63;;;11.13;;
10116;SDS011;5098;48.792;9.012;2023-07-02T09:39:11;17.10;;;11.90;;
10116;SDS011;5098;48.792;9.012;2023-07-02T09:41:39;17.23;;;12.20;;
10116;SDS011;5098;48.792;9.012;2023-07-02T09:44:06;17.27;;;12.00;;
10116;SDS011;5098;48.792;9.012;2023-07-02T09:46:33;16.77;;;11.97;;
10116;SDS011;5098;48.792;9.012;2023-07-02T09:48:59;16.03;;;12.93;;
10116;SDS011;5098;48.792;9.012;2023-07-02T09:51:26;18.40;;;13.80;;
10116;SDS011;5098;48.792;9.012;2023-07-02T09:53:52;19.73;;;13.17;;
10116;SDS011;5098;48.792;9.012;2023-07-02T09:56:18;20.10;;;13.70;;
10116;SDS011;5098;48.792;9.012;2023-07-02T09:58:46;18.40;;;12.60;;
10116;SDS011;5098;48.792;9.012;2023-07-02T10:01:12;19.90;;;13.10;;
10116;SDS011;5098;48.792;9.012;2023-07-02T10:03:38;19.13;;;14.67;;
10116;SDS011;5098;48.792;9.012;2023-07-02T10:06:07;16.40;;;12.90;;
10116;SDS011;5098;48.792;9.012;2023-07-02T10:08:33;19.10;;;13.60;;
10116;SDS011;5098;48.792;9.012;2023-07-02T10:13:58;14.70;;;12.33;;
10116;SDS011;5098;48.792;9.012;2023-07-02T10:16:24;19.20;;;13.73;;
10116;SDS011;5098;48.792;9.012;2023-07-02T10:18:52;14.10;;;10.73;;
10116;SDS011;5098;48.792;9.012;2023-07-02T10:21:19;14.60;;;12.03;;
10116;SDS011;5098;48.792;9.012;2023-07-02T10:23:45;15.97;;;14.13;;
10116;SDS011;5098;48.792;9.012;2023-07-02T10:26:15;18.07;;;14.73;;
10116;SDS011;5098;48.792;9.012;2023-07-02T10:28:41;14.60;;;11.60;;
10116;SDS011;5098;48.792;9.012;2023-07-02T10:31:17;15.70;;;12.63;;
10116;SDS011;5098;48.792;9.012;2023-07-02T10:33:43;23.00;;;13.87;;
10116;SDS011;5098;48.792;9.012;2023-07-02T10:36:17;17.70;;;12.13;;
10116;SDS011;5098;48.792;9.012;2023-07-02T10:38:44;16.57;;;12.57;;
10116;SDS011;5098;48.792;9.012;2023-07-02T10:41:10;16.83;;;12.77;;
10116;SDS011;5098;48.792;9.012;2023-07-02T10:43:36;17.80;;;14.63;;
10116;SDS011;5098;48.792;9.012;2023-07-02T10:46:02;13.77;;;10.97;;
10116;SDS011;5098;48.792;9.012;2023-07-02T10:48:30;20.10;;;15.80;;
10116;SDS011;5098;48.792;9.012;2023-07-02T10:50:56;16.63;;;10.53;;
10116;SDS011;5098;48.792;9.012;2023-07-02T10:53:22;18.07;;;13.00;;
10116;SDS011;5098;48.792;9.012;2023-07-02T10:55:55;15.10;;;12.47;;
10116;SDS011;5098;48.792;9.012;2023-07-02T10:58:21;18.20;;;13.37;;
10116;SDS011;5098;48.792;9.012;2023-07-02T11:00:48;16.70;;;11.97;;
10116;SDS011;5098;48.792;9.012;2023-07-02T11:03:22;17.40;;;13.63;;
10116;SDS011;5098;48.792;9.012;2023-07-02T11:05:49;14.90;;;12.40;;
10116;SDS011;5098;48.792;9.012;2023-07-02T11:08:16;15.93;;;13.27;;
10116;SDS011;5098;48.792;9.012;2023-07-02T11:10:42;15.77;;;11.80;;
10116;SDS011;5098;48.792;9.012;2023-07-02T11:15:37;19.20;;;11.73;;
10116;SDS011;5098;48.792;9.012;2023-07-02T11:18:08;13.90;;;12.17;;
10116;SDS011;5098;48.792;9.012;2023-07-02T11:20:34;16.30;;;13.70;;
10116;SDS011;5098;48.792;9.012;2023-07-02T11:23:00;15.27;;;11.87;;
10116;SDS011;5098;48.792;9.012;2023-07-02T11:25:26;16.00;;;12.43;;
10116;SDS011;5098;48.792;9.012;2023-07-02T11:28:05;15.87;;;12.53;;
10116;SDS011;5098;48.792;9.012;2023-07-02T11:30:31;15.30;;;12.97;;
10116;SDS011;5098;48.792;9.012;2023-07-02T11:32:57;16.43;;;13.43;;
10116;SDS011;5098;48.792;9.012;2023-07-02T11:35:33;13.77;;;12.10;;
10116;SDS011;5098;48.792;9.012;2023-07-02T11:38:00;16.57;;;13.60;;
10116;SDS011;5098;48.792;9.012;2023-07-02T11:40:26;15.37;;;11.40;;
10116;SDS011;5098;48.792;9.012;2023-07-02T11:42:52;16.47;;;12.83;;
10116;SDS011;5098;48.792;9.012;2023-07-02T11:45:18;16.53;;;13.17;;
10116;SDS011;5098;48.792;9.012;2023-07-02T11:47:44;20.33;;;13.50;;
10116;SDS011;5098;48.792;9.012;2023-07-02T11:50:10;26.83;;;22.87;;
10116;SDS011;5098;48.792;9.012;2023-07-02T11:52:38;18.20;;;12.83;;
10116;SDS011;5098;48.792;9.012;2023-07-02T11:55:04;21.67;;;18.70;;
10116;SDS011;5098;48.792;9.012;2023-07-02T11:57:30;20.43;;;14.90;;
10116;SDS011;5098;48.792;9.012;2023-07-02T11:59:56;17.00;;;14.10;;
10116;SDS011;5098;48.792;9.012;2023-07-02T12:02:23;20.40;;;13.50;;
10116;SDS011;5098;48.792;9.012;2023-07-02T12:04:49;15.13;;;12.47;;
10116;SDS011;5098;48.792;9.012;2023-07-02T12:07:15;14.30;;;11.77;;
10116;SDS011;5098;48.792;9.012;2023-07-02T12:09:41;17.63;;;13.93;;
10116;SDS011;5098;48.792;9.012;2023-07-02T12:12:07;15.77;;;14.07;;
10116;SDS011;5098;48.792;9.012;2023-07-02T12:14:33;17.10;;;14.10;;
10116;SDS011;5098;48.792;9.012;2023-07-02T12:16:59;14.10;;;12.60;;
10116;SDS011;5098;48.792;9.012;2023-07-02T12:19:26;16.60;;;14.00;;
10116;SDS011;5098;48.792;9.012;2023-07-02T12:21:52;16.03;;;12.57;;
10116;SDS011;5098;48.792;9.012;2023-07-02T12:24:18;17.10;;;13.17;;
10116;SDS011;5098;48.792;9.012;2023-07-02T12:26:44;16.50;;;13.33;;
10116;SDS011;5098;48.792;9.012;2023-07-02T12:29:10;16.80;;;14.40;;
10116;SDS011;5098;48.792;9.012;2023-07-02T12:31:36;17.40;;;14.23;;
10116;SDS011;5098;48.792;9.012;2023-07-02T12:34:02;14.73;;;12.13;;
10116;SDS011;5098;48.792;9.012;2023-07-02T12:36:28;14.13;;;12.60;;
10116;SDS011;5098;48.792;9.012;2023-07-02T12:38:54;15.60;;;12.60;;
10116;SDS011;5098;48.792;9.012;2023-07-02T12:41:21;16.27;;;14.10;;
10116;SDS011;5098;48.792;9.012;2023-07-02T12:43:47;17.00;;;13.90;;
10116;SDS011;5098;48.792;9.012;2023-07-02T12:46:13;14.87;;;13.27;;
10116;SDS011;5098;48.792;9.012;2023-07-02T12:48:39;13.20;;;10.60;;
10116;SDS011;5098;48.792;9.012;2023-07-02T12:51:05;12.57;;;8.70;;
10116;SDS011;5098;48.792;9.012;2023-07-02T12:53:31;17.47;;;13.87;;
10116;SDS011;5098;48.792;9.012;2023-07-02T12:55:57;17.10;;;13.73;;
10116;SDS011;5098;48.792;9.012;2023-07-02T12:58:23;17.07;;;14.03;;
10116;SDS011;5098;48.792;9.012;2023-07-02T13:00:49;17.70;;;13.63;;
10116;SDS011;5098;48.792;9.012;2023-07-02T13:03:17;15.00;;;13.30;;
10116;SDS011;5098;48.792;9.012;2023-07-02T13:05:43;15.03;;;12.90;;
10116;SDS011;5098;48.792;9.012;2023-07-02T13:08:10;21.60;;;15.97;;
10116;SDS011;5098;48.792;9.012;2023-07-02T13:10:36;16.40;;;14.00;;
10116;SDS011;5098;48.792;9.012;2023-07-02T13:13:03;16.77;;;13.03;;
10116;SDS011;5098;48.792;9.012;2023-07-02T13:15:29;16.40;;;14.10;;
10116;SDS011;5098;48.792;9.012;2023-07-02T13:17:55;17.37;;;14.70;;
10116;SDS011;5098;48.792;9.012;2023-07-02T13:20:21;15.40;;;13.87;;
10116;SDS011;5098;48.792;9.012;2023-07-02T13:22:47;17.27;;;14.60;;
10116;SDS011;5098;48.792;9.012;2023-07-02T13:25:13;17.30;;;13.30;;
10116;SDS011;5098;48.792;9.012;2023-07-02T13:27:39;14.80;;;12.90;;
10116;SDS011;5098;48.792;9.012;2023-07-02T13:30:05;16.03;;;13.30;;
10116;SDS011;5098;48.792;9.012;2023-07-02T13:32:31;15.03;;;13.53;;
10116;SDS011;5098;48.792;9.012;2023-07-02T13:34:57;15.53;;;12.80;;
10116;SDS011;5098;48.792;9.012;2023-07-02T13:37:24;16.53;;;14.10;;
10116;SDS011;5098;48.792;9.012;2023-07-02T13:39:51;15.90;;;12.73;;
10116;SDS011;5098;48.792;9.012;2023-07-02T13:42:17;17.50;;;13.10;;
10116;SDS011;5098;48.792;9.012;2023-07-02T13:44:43;14.70;;;13.20;;
10116;SDS011;5098;48.792;9.012;2023-07-02T13:47:09;15.13;;;13.53;;
10116;SDS011;5098;48.792;9.012;2023-07-02T13:49:36;14.77;;;12.67;;
10116;SDS011;5098;48.792;9.012;2023-07-02T13:52:02;16.87;;;13.50;;
10116;SDS011;5098;48.792;9.012;2023-07-02T13:54:28;15.80;;;14.10;;
10116;SDS011;5098;48.792;9.012;2023-07-02T13:56:55;15.53;;;13.83;;
10116;SDS011;5098;48.792;9.012;2023-07-02T13:59:21;15.67;;;13.20;;
10116;SDS011;5098;48.792;9.012;2023-07-02T14:01:47;17.63;;;13.03;;
10116;SDS011;5098;48.792;9.012;2023-07-02T14:04:14;17.33;;;13.57;;
10116;SDS011;5098;48.792;9.012;2023-07-02T14:06:41;19.27;;;13.73;;
10116;SDS011;5098;48.792;9.012;2023-07-02T14:09:07;16.37;;;14.77;;
10116;SDS011;5098;48.792;9.012;2023-07-02T14:11:34;18.10;;;14.37;;
10116;SDS011;5098;48.792;9.012;2023-07-02T14:14:00;16.23;;;14.50;;
10116;SDS011;5098;48.792;9.012;2023-07-02T14:16:27;15.87;;;12.87;;
10116;SDS011;5098;48.792;9.012;2023-07-02T14:18:53;19.00;;;14.03;;
10116;SDS011;5098;48.792;9.012;2023-07-02T14:21:19;15.07;;;13.47;;
10116;SDS011;5098;48.792;9.012;2023-07-02T14:23:45;17.00;;;14.20;;
10116;SDS011;5098;48.792;9.012;2023-07-02T14:26:11;18.23;;;14.47;;
10116;SDS011;5098;48.792;9.012;2023-07-02T14:28:38;14.67;;;12.43;;
10116;SDS011;5098;48.792;9.012;2023-07-02T14:31:05;16.10;;;13.73;;
10116;SDS011;5098;48.792;9.012;2023-07-02T14:33:32;17.17;;;13.93;;
10116;SDS011;5098;48.792;9.012;2023-07-02T14:35:58;17.00;;;14.27;;
10116;SDS011;5098;48.792;9.012;2023-07-02T14:38:24;16.00;;;14.33;;
10116;SDS011;5098;48.792;9.012;2023-07-02T14:40:51;14.60;;;13.10;;
10116;SDS011;5098;48.792;9.012;2023-07-02T14:43:18;17.83;;;13.90;;
10116;SDS011;5098;48.792;9.012;2023-07-02T14:45:48;16.90;;;13.77;;
10116;SDS011;5098;48.792;9.012;2023-07-02T14:48:15;15.73;;;14.13;;